sensor_id;sensor_type;location;lat;lon;timestamp;P1;durP1;ratioP1;P2;durP2;ratioP2
3417;SDS011;68007;51.312;12.372;2023-09-30T00:00:11;3.07;;;1.63;;
3417;SDS011;68007;51.312;12.372;2023-09-30T00:02:39;6.07;;;1.70;;
3417;SDS011;68007;51.312;12.372;2023-09-30T00:05:06;2.87;;;1.33;;
3417;SDS011;68007;51.312;12.372;2023-09-30T00:07:37;5.93;;;1.70;;
3417;SDS011;68007;51.312;12.372;2023-09-30T00:10:05;7.83;;;1.80;;
3417;SDS011;68007;51.312;12.372;2023-09-30T00:12:33;3.23;;;1.63;;
3417;SDS011;68007;51.312;12.372;2023-09-30T00:15:01;7.10;;;2.03;;
3417;SDS011;68007;51.312;12.372;2023-09-30T00:17:29;6.50;;;2.30;;
3417;SDS011;68007;51.312;12.372;2023-09-30T00:19:57;6.53;;;1.87;;
3417;SDS011;68007;51.312;12.372;2023-09-30T00:22:25;3.43;;;1.70;;
3417;SDS011;68007;51.312;12.372;2023-09-30T00:24:54;9.27;;;2.53;;
3417;SDS011;68007;51.312;12.372;2023-09-30T00:27:22;6.50;;;2.43;;
3417;SDS011;68007;51.312;12.372;2023-09-30T00:29:49;9.03;;;2.23;;
3417;SDS011;68007;51.312;12.372;2023-09-30T00:32:17;8.77;;;2.20;;
3417;SDS011;68007;51.312;12.372;2023-09-30T00:34:44;6.57;;;2.40;;
3417;SDS011;68007;51.312;12.372;2023-09-30T00:37:12;6.60;;;2.07;;
3417;SDS011;68007;51.312;12.372;2023-09-30T00:39:40;11.33;;;2.70;;
3417;SDS011;68007;51.312;12.372;2023-09-30T00:42:08;7.03;;;2.30;;
3417;SDS011;68007;51.312;12.372;2023-09-30T00:44:36;8.90;;;2.50;;
3417;SDS011;68007;51.312;12.372;2023-09-30T00:47:03;8.07;;;2.73;;
3417;SDS011;68007;51.312;12.372;2023-09-30T00:49:34;9.70;;;2.43;;
3417;SDS011;68007;51.312;12.372;2023-09-30T00:52:02;4.87;;;2.10;;
3417;SDS011;68007;51.312;12.372;2023-09-30T00:54:30;8.10;;;2.70;;
3417;SDS011;68007;51.312;12.372;2023-09-30T00:56:58;6.27;;;2.70;;
3417;SDS011;68007;51.312;12.372;2023-09-30T00:59:29;11.90;;;3.30;;
3417;SDS011;68007;51.312;12.372;2023-09-30T01:01:59;7.37;;;2.57;;
3417;SDS011;68007;51.312;12.372;2023-09-30T01:04:27;7.33;;;2.43;;
3417;SDS011;68007;51.312;12.372;2023-09-30T01:06:55;11.07;;;2.97;;
3417;SDS011;68007;51.312;12.372;2023-09-30T01:09:24;8.60;;;2.60;;
3417;SDS011;68007;51.312;12.372;2023-09-30T01:11:51;6.17;;;2.50;;
3417;SDS011;68007;51.312;12.372;2023-09-30T01:14:26;7.33;;;2.57;;
3417;SDS011;68007;51.312;12.372;2023-09-30T01:16:55;5.93;;;2.40;;
3417;SDS011;68007;51.312;12.372;2023-09-30T01:19:23;6.73;;;2.63;;
3417;SDS011;68007;51.312;12.372;2023-09-30T01:21:53;6.60;;;2.47;;
3417;SDS011;68007;51.312;12.372;2023-09-30T01:24:25;5.20;;;2.40;;
3417;SDS011;68007;51.312;12.372;2023-09-30T01:26:53;6.77;;;2.80;;
3417;SDS011;68007;51.312;12.372;2023-09-30T01:29:20;5.30;;;2.03;;
3417;SDS011;68007;51.312;12.372;2023-09-30T01:31:48;7.30;;;2.23;;
3417;SDS011;68007;51.312;12.372;2023-09-30T01:34:16;10.40;;;2.63;;
3417;SDS011;68007;51.312;12.372;2023-09-30T01:36:43;6.00;;;1.97;;
3417;SDS011;68007;51.312;12.372;2023-09-30T01:39:14;8.00;;;3.63;;
3417;SDS011;68007;51.312;12.372;2023-09-30T01:41:41;6.80;;;2.10;;
3417;SDS011;68007;51.312;12.372;2023-09-30T01:44:09;10.40;;;2.93;;
3417;SDS011;68007;51.312;12.372;2023-09-30T01:46:37;7.97;;;2.63;;
3417;SDS011;68007;51.312;12.372;2023-09-30T01:49:05;11.80;;;3.17;;
3417;SDS011;68007;51.312;12.372;2023-09-30T01:51:32;10.17;;;2.77;;
3417;SDS011;68007;51.312;12.372;2023-09-30T01:54:00;6.13;;;2.90;;
3417;SDS011;68007;51.312;12.372;2023-09-30T01:56:28;8.10;;;2.60;;
3417;SDS011;68007;51.312;12.372;2023-09-30T01:58:58;8.30;;;3.10;;
3417;SDS011;68007;51.312;12.372;2023-09-30T02:01:26;6.87;;;2.67;;
3417;SDS011;68007;51.312;12.372;2023-09-30T02:03:53;6.43;;;2.50;;
3417;SDS011;68007;51.312;12.372;2023-09-30T02:06:21;9.33;;;3.30;;
3417;SDS011;68007;51.312;12.372;2023-09-30T02:08:48;6.73;;;2.77;;
3417;SDS011;68007;51.312;12.372;2023-09-30T02:11:16;8.97;;;3.40;;
3417;SDS011;68007;51.312;12.372;2023-09-30T02:13:45;6.90;;;3.27;;
3417;SDS011;68007;51.312;12.372;2023-09-30T02:16:12;7.50;;;3.07;;
3417;SDS011;68007;51.312;12.372;2023-09-30T02:18:41;6.50;;;2.73;;
3417;SDS011;68007;51.312;12.372;2023-09-30T02:21:10;8.23;;;2.47;;
3417;SDS011;68007;51.312;12.372;2023-09-30T02:23:38;6.60;;;2.60;;
3417;SDS011;68007;51.312;12.372;2023-09-30T02:26:05;12.13;;;3.13;;
3417;SDS011;68007;51.312;12.372;2023-09-30T02:28:33;9.10;;;3.10;;
3417;SDS011;68007;51.312;12.372;2023-09-30T02:31:02;6.17;;;2.77;;
3417;SDS011;68007;51.312;12.372;2023-09-30T02:33:29;6.87;;;2.60;;
3417;SDS011;68007;51.312;12.372;2023-09-30T02:35:57;6.27;;;2.60;;
3417;SDS011;68007;51.312;12.372;2023-09-30T02:38:25;10.20;;;3.30;;
3417;SDS011;68007;51.312;12.372;2023-09-30T02:40:54;10.33;;;2.80;;
3417;SDS011;68007;51.312;12.372;2023-09-30T02:43:21;6.60;;;2.90;;
3417;SDS011;68007;51.312;12.372;2023-09-30T02:45:49;15.57;;;3.00;;
3417;SDS011;68007;51.312;12.372;2023-09-30T02:48:18;7.90;;;2.87;;
3417;SDS011;68007;51.312;12.372;2023-09-30T02:50:45;7.80;;;2.70;;
3417;SDS011;68007;51.312;12.372;2023-09-30T02:53:13;11.10;;;4.57;;
3417;SDS011;68007;51.312;12.372;2023-09-30T02:55:40;8.07;;;3.63;;
3417;SDS011;68007;51.312;12.372;2023-09-30T02:58:08;9.90;;;3.20;;
3417;SDS011;68007;51.312;12.372;2023-09-30T03:00:36;10.07;;;3.07;;
3417;SDS011;68007;51.312;12.372;2023-09-30T03:03:03;8.97;;;3.23;;
3417;SDS011;68007;51.312;12.372;2023-09-30T03:05:33;9.27;;;3.20;;
3417;SDS011;68007;51.312;12.372;2023-09-30T03:08:00;9.67;;;3.00;;
3417;SDS011;68007;51.312;12.372;2023-09-30T03:10:28;8.63;;;3.13;;
3417;SDS011;68007;51.312;12.372;2023-09-30T03:12:56;12.20;;;3.57;;
3417;SDS011;68007;51.312;12.372;2023-09-30T03:15:27;8.17;;;3.20;;
3417;SDS011;68007;51.312;12.372;2023-09-30T03:17:56;12.23;;;3.13;;
3417;SDS011;68007;51.312;12.372;2023-09-30T03:20:25;12.30;;;3.97;;
3417;SDS011;68007;51.312;12.372;2023-09-30T03:22:54;10.90;;;4.50;;
3417;SDS011;68007;51.312;12.372;2023-09-30T03:25:23;10.30;;;3.93;;
3417;SDS011;68007;51.312;12.372;2023-09-30T03:27:50;9.53;;;3.40;;
3417;SDS011;68007;51.312;12.372;2023-09-30T03:30:18;10.70;;;3.50;;
3417;SDS011;68007;51.312;12.372;2023-09-30T03:32:46;9.07;;;3.00;;
3417;SDS011;68007;51.312;12.372;2023-09-30T03:35:14;8.20;;;3.07;;
3417;SDS011;68007;51.312;12.372;2023-09-30T03:37:42;9.20;;;3.27;;
3417;SDS011;68007;51.312;12.372;2023-09-30T03:40:12;13.73;;;3.73;;
3417;SDS011;68007;51.312;12.372;2023-09-30T03:42:40;8.73;;;3.77;;
3417;SDS011;68007;51.312;12.372;2023-09-30T03:45:09;15.93;;;4.00;;
3417;SDS011;68007;51.312;12.372;2023-09-30T03:47:39;9.83;;;3.40;;
3417;SDS011;68007;51.312;12.372;2023-09-30T03:50:07;10.77;;;4.27;;
3417;SDS011;68007;51.312;12.372;2023-09-30T03:52:40;10.47;;;3.73;;
3417;SDS011;68007;51.312;12.372;2023-09-30T03:55:11;11.20;;;3.87;;
3417;SDS011;68007;51.312;12.372;2023-09-30T03:57:40;12.27;;;3.30;;
3417;SDS011;68007;51.312;12.372;2023-09-30T04:00:07;9.43;;;3.50;;
3417;SDS011;68007;51.312;12.372;2023-09-30T04:02:41;9.93;;;4.03;;
3417;SDS011;68007;51.312;12.372;2023-09-30T04:05:09;16.13;;;3.90;;
3417;SDS011;68007;51.312;12.372;2023-09-30T04:07:40;9.20;;;3.33;;
3417;SDS011;68007;51.312;12.372;2023-09-30T04:10:08;13.00;;;4.00;;
3417;SDS011;68007;51.312;12.372;2023-09-30T04:12:38;11.43;;;4.17;;
3417;SDS011;68007;51.312;12.372;2023-09-30T04:15:06;12.73;;;3.90;;
3417;SDS011;68007;51.312;12.372;2023-09-30T04:17:37;11.30;;;4.23;;
3417;SDS011;68007;51.312;12.372;2023-09-30T04:20:06;9.60;;;3.77;;
3417;SDS011;68007;51.312;12.372;2023-09-30T04:22:41;14.73;;;4.20;;
3417;SDS011;68007;51.312;12.372;2023-09-30T04:25:11;13.27;;;4.33;;
3417;SDS011;68007;51.312;12.372;2023-09-30T04:27:43;10.20;;;4.33;;
3417;SDS011;68007;51.312;12.372;2023-09-30T04:30:13;10.93;;;3.70;;
3417;SDS011;68007;51.312;12.372;2023-09-30T04:32:41;11.40;;;3.90;;
3417;SDS011;68007;51.312;12.372;2023-09-30T04:35:09;14.17;;;4.53;;
3417;SDS011;68007;51.312;12.372;2023-09-30T04:37:36;14.80;;;5.67;;
3417;SDS011;68007;51.312;12.372;2023-09-30T04:40:05;10.67;;;4.67;;
3417;SDS011;68007;51.312;12.372;2023-09-30T04:42:41;12.80;;;4.30;;
3417;SDS011;68007;51.312;12.372;2023-09-30T04:45:11;11.67;;;4.20;;
3417;SDS011;68007;51.312;12.372;2023-09-30T04:47:42;13.00;;;5.00;;
3417;SDS011;68007;51.312;12.372;2023-09-30T04:50:10;10.43;;;3.80;;
3417;SDS011;68007;51.312;12.372;2023-09-30T04:52:42;10.13;;;4.07;;
3417;SDS011;68007;51.312;12.372;2023-09-30T04:55:10;15.50;;;4.70;;
3417;SDS011;68007;51.312;12.372;2023-09-30T04:57:41;11.30;;;4.27;;
3417;SDS011;68007;51.312;12.372;2023-09-30T05:00:13;10.33;;;4.30;;
3417;SDS011;68007;51.312;12.372;2023-09-30T05:02:43;11.13;;;4.00;;
3417;SDS011;68007;51.312;12.372;2023-09-30T05:05:11;10.40;;;4.20;;
3417;SDS011;68007;51.312;12.372;2023-09-30T05:07:38;13.67;;;4.67;;
3417;SDS011;68007;51.312;12.372;2023-09-30T05:10:07;8.10;;;3.77;;
3417;SDS011;68007;51.312;12.372;2023-09-30T05:12:37;15.00;;;5.27;;
3417;SDS011;68007;51.312;12.372;2023-09-30T05:15:06;12.33;;;4.83;;
3417;SDS011;68007;51.312;12.372;2023-09-30T05:17:35;11.90;;;4.50;;
3417;SDS011;68007;51.312;12.372;2023-09-30T05:20:03;13.63;;;5.50;;
3417;SDS011;68007;51.312;12.372;2023-09-30T05:22:32;9.87;;;4.03;;
3417;SDS011;68007;51.312;12.372;2023-09-30T05:25:00;15.73;;;4.70;;
3417;SDS011;68007;51.312;12.372;2023-09-30T05:27:28;17.97;;;4.10;;
3417;SDS011;68007;51.312;12.372;2023-09-30T05:29:55;10.30;;;5.10;;
3417;SDS011;68007;51.312;12.372;2023-09-30T05:32:23;9.47;;;4.23;;
3417;SDS011;68007;51.312;12.372;2023-09-30T05:34:53;11.10;;;4.73;;
3417;SDS011;68007;51.312;12.372;2023-09-30T05:37:21;9.57;;;3.80;;
3417;SDS011;68007;51.312;12.372;2023-09-30T05:39:49;16.30;;;4.37;;
3417;SDS011;68007;51.312;12.372;2023-09-30T05:42:16;14.43;;;4.50;;
3417;SDS011;68007;51.312;12.372;2023-09-30T05:44:44;14.23;;;3.90;;
3417;SDS011;68007;51.312;12.372;2023-09-30T05:47:14;9.40;;;3.53;;
3417;SDS011;68007;51.312;12.372;2023-09-30T05:49:42;13.60;;;4.33;;
3417;SDS011;68007;51.312;12.372;2023-09-30T05:52:11;16.53;;;4.70;;
3417;SDS011;68007;51.312;12.372;2023-09-30T05:54:38;13.53;;;4.50;;
3417;SDS011;68007;51.312;12.372;2023-09-30T05:57:06;12.40;;;4.50;;
3417;SDS011;68007;51.312;12.372;2023-09-30T05:59:34;9.83;;;4.30;;
3417;SDS011;68007;51.312;12.372;2023-09-30T06:02:02;12.60;;;4.60;;
3417;SDS011;68007;51.312;12.372;2023-09-30T06:04:30;13.80;;;4.03;;
3417;SDS011;68007;51.312;12.372;2023-09-30T06:06:59;10.20;;;3.70;;
3417;SDS011;68007;51.312;12.372;2023-09-30T06:09:27;16.17;;;4.13;;
3417;SDS011;68007;51.312;12.372;2023-09-30T06:11:56;13.23;;;4.50;;
3417;SDS011;68007;51.312;12.372;2023-09-30T06:14:23;13.30;;;4.77;;
3417;SDS011;68007;51.312;12.372;2023-09-30T06:16:53;10.53;;;4.40;;
3417;SDS011;68007;51.312;12.372;2023-09-30T06:19:21;17.63;;;4.30;;
3417;SDS011;68007;51.312;12.372;2023-09-30T06:21:49;10.40;;;3.90;;
3417;SDS011;68007;51.312;12.372;2023-09-30T06:24:17;14.10;;;4.97;;
3417;SDS011;68007;51.312;12.372;2023-09-30T06:26:47;11.30;;;4.57;;
3417;SDS011;68007;51.312;12.372;2023-09-30T06:29:15;15.50;;;4.70;;
3417;SDS011;68007;51.312;12.372;2023-09-30T06:31:42;16.00;;;4.97;;
3417;SDS011;68007;51.312;12.372;2023-09-30T06:34:10;12.37;;;4.07;;
3417;SDS011;68007;51.312;12.372;2023-09-30T06:36:38;24.60;;;5.13;;
3417;SDS011;68007;51.312;12.372;2023-09-30T06:39:07;12.33;;;4.97;;
3417;SDS011;68007;51.312;12.372;2023-09-30T06:41:34;13.77;;;4.70;;
3417;SDS011;68007;51.312;12.372;2023-09-30T06:44:03;8.73;;;3.53;;
3417;SDS011;68007;51.312;12.372;2023-09-30T06:46:31;10.50;;;4.00;;
3417;SDS011;68007;51.312;12.372;2023-09-30T06:48:58;10.60;;;4.00;;
3417;SDS011;68007;51.312;12.372;2023-09-30T06:51:26;11.07;;;4.50;;
3417;SDS011;68007;51.312;12.372;2023-09-30T06:53:53;11.03;;;3.90;;
3417;SDS011;68007;51.312;12.372;2023-09-30T06:56:21;9.63;;;3.60;;
3417;SDS011;68007;51.312;12.372;2023-09-30T06:58:48;9.20;;;3.40;;
3417;SDS011;68007;51.312;12.372;2023-09-30T07:01:17;12.93;;;4.63;;
3417;SDS011;68007;51.312;12.372;2023-09-30T07:03:45;12.90;;;4.23;;
3417;SDS011;68007;51.312;12.372;2023-09-30T07:06:12;14.93;;;3.83;;
3417;SDS011;68007;51.312;12.372;2023-09-30T07:08:48;9.73;;;3.83;;
3417;SDS011;68007;51.312;12.372;2023-09-30T07:11:15;16.63;;;4.80;;
3417;SDS011;68007;51.312;12.372;2023-09-30T07:13:42;12.23;;;4.13;;
3417;SDS011;68007;51.312;12.372;2023-09-30T07:16:10;9.57;;;4.70;;
3417;SDS011;68007;51.312;12.372;2023-09-30T07:18:39;9.50;;;4.03;;
3417;SDS011;68007;51.312;12.372;2023-09-30T07:21:06;15.63;;;4.10;;
3417;SDS011;68007;51.312;12.372;2023-09-30T07:23:34;15.00;;;3.80;;
3417;SDS011;68007;51.312;12.372;2023-09-30T07:26:01;7.37;;;3.63;;
3417;SDS011;68007;51.312;12.372;2023-09-30T07:28:29;13.30;;;3.97;;
3417;SDS011;68007;51.312;12.372;2023-09-30T07:30:58;11.90;;;3.60;;
3417;SDS011;68007;51.312;12.372;2023-09-30T07:33:25;10.33;;;3.33;;
3417;SDS011;68007;51.312;12.372;2023-09-30T07:35:54;12.53;;;3.97;;
3417;SDS011;68007;51.312;12.372;2023-09-30T07:38:22;9.47;;;3.57;;
3417;SDS011;68007;51.312;12.372;2023-09-30T07:40:50;11.00;;;3.87;;
3417;SDS011;68007;51.312;12.372;2023-09-30T07:43:17;13.47;;;3.90;;
3417;SDS011;68007;51.312;12.372;2023-09-30T07:45:46;14.10;;;4.43;;
3417;SDS011;68007;51.312;12.372;2023-09-30T07:48:13;9.77;;;3.50;;
3417;SDS011;68007;51.312;12.372;2023-09-30T07:50:41;10.30;;;3.83;;
3417;SDS011;68007;51.312;12.372;2023-09-30T07:53:10;10.97;;;3.50;;
3417;SDS011;68007;51.312;12.372;2023-09-30T07:55:38;7.13;;;2.97;;
3417;SDS011;68007;51.312;12.372;2023-09-30T07:58:06;6.87;;;3.17;;
3417;SDS011;68007;51.312;12.372;2023-09-30T08:00:33;13.47;;;3.30;;
3417;SDS011;68007;51.312;12.372;2023-09-30T08:03:01;10.47;;;3.60;;
3417;SDS011;68007;51.312;12.372;2023-09-30T08:05:29;12.97;;;3.90;;
3417;SDS011;68007;51.312;12.372;2023-09-30T08:07:56;11.60;;;3.30;;
3417;SDS011;68007;51.312;12.372;2023-09-30T08:10:25;8.73;;;2.93;;
3417;SDS011;68007;51.312;12.372;2023-09-30T08:12:54;8.93;;;3.83;;
3417;SDS011;68007;51.312;12.372;2023-09-30T08:15:23;6.00;;;2.70;;
3417;SDS011;68007;51.312;12.372;2023-09-30T08:17:51;7.80;;;3.23;;
3417;SDS011;68007;51.312;12.372;2023-09-30T08:20:19;12.33;;;4.30;;
3417;SDS011;68007;51.312;12.372;2023-09-30T08:22:46;9.73;;;3.80;;
3417;SDS011;68007;51.312;12.372;2023-09-30T08:25:14;10.00;;;3.70;;
3417;SDS011;68007;51.312;12.372;2023-09-30T08:27:43;13.40;;;4.67;;
3417;SDS011;68007;51.312;12.372;2023-09-30T08:30:11;11.50;;;3.80;;
3417;SDS011;68007;51.312;12.372;2023-09-30T08:32:39;10.70;;;3.97;;
3417;SDS011;68007;51.312;12.372;2023-09-30T08:35:07;7.40;;;3.33;;
3417;SDS011;68007;51.312;12.372;2023-09-30T08:37:35;10.80;;;4.27;;
3417;SDS011;68007;51.312;12.372;2023-09-30T08:40:03;15.23;;;4.40;;
3417;SDS011;68007;51.312;12.372;2023-09-30T08:42:32;8.80;;;3.40;;
3417;SDS011;68007;51.312;12.372;2023-09-30T08:45:01;12.57;;;3.57;;
3417;SDS011;68007;51.312;12.372;2023-09-30T08:47:31;16.30;;;3.30;;
3417;SDS011;68007;51.312;12.372;2023-09-30T08:50:00;9.30;;;3.50;;
3417;SDS011;68007;51.312;12.372;2023-09-30T08:52:32;8.07;;;3.40;;
3417;SDS011;68007;51.312;12.372;2023-09-30T08:55:00;17.27;;;3.80;;
3417;SDS011;68007;51.312;12.372;2023-09-30T08:57:29;11.00;;;3.87;;
3417;SDS011;68007;51.312;12.372;2023-09-30T08:59:57;14.03;;;3.73;;
3417;SDS011;68007;51.312;12.372;2023-09-30T09:02:27;15.07;;;3.70;;
3417;SDS011;68007;51.312;12.372;2023-09-30T09:04:55;11.10;;;3.30;;
3417;SDS011;68007;51.312;12.372;2023-09-30T09:07:25;9.20;;;3.10;;
3417;SDS011;68007;51.312;12.372;2023-09-30T09:10:05;8.70;;;3.10;;
3417;SDS011;68007;51.312;12.372;2023-09-30T09:12:35;9.90;;;3.40;;
3417;SDS011;68007;51.312;12.372;2023-09-30T09:15:05;9.20;;;2.80;;
3417;SDS011;68007;51.312;12.372;2023-09-30T09:17:41;12.30;;;3.60;;
3417;SDS011;68007;51.312;12.372;2023-09-30T09:20:10;12.20;;;3.30;;
3417;SDS011;68007;51.312;12.372;2023-09-30T09:22:40;12.50;;;3.53;;
3417;SDS011;68007;51.312;12.372;2023-09-30T09:25:08;19.50;;;3.53;;
3417;SDS011;68007;51.312;12.372;2023-09-30T09:27:36;13.30;;;2.90;;
3417;SDS011;68007;51.312;12.372;2023-09-30T09:30:14;8.83;;;2.70;;
3417;SDS011;68007;51.312;12.372;2023-09-30T09:32:59;18.07;;;4.23;;
3417;SDS011;68007;51.312;12.372;2023-09-30T09:35:27;8.57;;;2.70;;
3417;SDS011;68007;51.312;12.372;2023-09-30T09:37:56;8.80;;;3.00;;
3417;SDS011;68007;51.312;12.372;2023-09-30T09:40:26;11.70;;;3.70;;
3417;SDS011;68007;51.312;12.372;2023-09-30T09:42:54;11.57;;;3.37;;
3417;SDS011;68007;51.312;12.372;2023-09-30T09:45:23;14.33;;;3.47;;
3417;SDS011;68007;51.312;12.372;2023-09-30T09:47:52;11.83;;;3.27;;
3417;SDS011;68007;51.312;12.372;2023-09-30T09:50:22;11.57;;;3.77;;
3417;SDS011;68007;51.312;12.372;2023-09-30T09:52:50;9.83;;;3.13;;
3417;SDS011;68007;51.312;12.372;2023-09-30T09:55:19;14.13;;;4.10;;
3417;SDS011;68007;51.312;12.372;2023-09-30T09:57:48;14.10;;;4.70;;
3417;SDS011;68007;51.312;12.372;2023-09-30T10:00:17;12.33;;;3.33;;
3417;SDS011;68007;51.312;12.372;2023-09-30T10:02:45;17.13;;;3.53;;
3417;SDS011;68007;51.312;12.372;2023-09-30T10:05:15;16.87;;;4.00;;
3417;SDS011;68007;51.312;12.372;2023-09-30T10:07:45;9.60;;;3.30;;
3417;SDS011;68007;51.312;12.372;2023-09-30T10:10:18;13.10;;;3.77;;
3417;SDS011;68007;51.312;12.372;2023-09-30T10:12:47;10.37;;;3.10;;
3417;SDS011;68007;51.312;12.372;2023-09-30T10:18:03;12.73;;;3.27;;
3417;SDS011;68007;51.312;12.372;2023-09-30T10:20:33;17.17;;;3.47;;
3417;SDS011;68007;51.312;12.372;2023-09-30T10:26:13;9.00;;;2.80;;
3417;SDS011;68007;51.312;12.372;2023-09-30T10:28:43;8.27;;;2.63;;
3417;SDS011;68007;51.312;12.372;2023-09-30T10:31:15;10.13;;;2.70;;
3417;SDS011;68007;51.312;12.372;2023-09-30T10:36:47;14.07;;;4.70;;
3417;SDS011;68007;51.312;12.372;2023-09-30T10:39:52;11.90;;;3.33;;
3417;SDS011;68007;51.312;12.372;2023-09-30T10:51:12;11.50;;;2.93;;
3417;SDS011;68007;51.312;12.372;2023-09-30T10:53:44;8.23;;;3.13;;
3417;SDS011;68007;51.312;12.372;2023-09-30T10:56:15;13.27;;;3.63;;
3417;SDS011;68007;51.312;12.372;2023-09-30T10:58:43;6.93;;;2.07;;
3417;SDS011;68007;51.312;12.372;2023-09-30T11:01:12;6.63;;;2.53;;
3417;SDS011;68007;51.312;12.372;2023-09-30T11:03:40;8.37;;;2.47;;
3417;SDS011;68007;51.312;12.372;2023-09-30T11:06:10;13.07;;;3.70;;
3417;SDS011;68007;51.312;12.372;2023-09-30T11:08:45;5.00;;;2.50;;
3417;SDS011;68007;51.312;12.372;2023-09-30T11:11:18;7.83;;;2.50;;
3417;SDS011;68007;51.312;12.372;2023-09-30T11:13:46;7.40;;;2.97;;
3417;SDS011;68007;51.312;12.372;2023-09-30T11:16:14;16.40;;;4.27;;
3417;SDS011;68007;51.312;12.372;2023-09-30T11:18:41;10.10;;;3.40;;
3417;SDS011;68007;51.312;12.372;2023-09-30T11:21:09;11.47;;;2.97;;
3417;SDS011;68007;51.312;12.372;2023-09-30T11:23:38;8.93;;;3.23;;
3417;SDS011;68007;51.312;12.372;2023-09-30T11:26:08;10.60;;;2.70;;
3417;SDS011;68007;51.312;12.372;2023-09-30T11:28:41;11.47;;;3.23;;
3417;SDS011;68007;51.312;12.372;2023-09-30T11:31:09;6.47;;;2.43;;
3417;SDS011;68007;51.312;12.372;2023-09-30T11:33:49;7.73;;;2.60;;
3417;SDS011;68007;51.312;12.372;2023-09-30T11:36:18;10.53;;;2.80;;
3417;SDS011;68007;51.312;12.372;2023-09-30T11:38:48;7.53;;;2.93;;
3417;SDS011;68007;51.312;12.372;2023-09-30T11:41:18;8.70;;;2.50;;
3417;SDS011;68007;51.312;12.372;2023-09-30T11:44:02;11.07;;;2.80;;
3417;SDS011;68007;51.312;12.372;2023-09-30T11:46:49;13.93;;;2.80;;
3417;SDS011;68007;51.312;12.372;2023-09-30T11:49:24;8.17;;;2.47;;
3417;SDS011;68007;51.312;12.372;2023-09-30T11:51:53;8.20;;;2.50;;
3417;SDS011;68007;51.312;12.372;2023-09-30T11:54:22;12.70;;;3.00;;
3417;SDS011;68007;51.312;12.372;2023-09-30T11:56:49;4.53;;;2.00;;
3417;SDS011;68007;51.312;12.372;2023-09-30T11:59:18;10.40;;;2.67;;
3417;SDS011;68007;51.312;12.372;2023-09-30T12:01:48;11.20;;;2.47;;
3417;SDS011;68007;51.312;12.372;2023-09-30T12:04:17;8.17;;;2.20;;
3417;SDS011;68007;51.312;12.372;2023-09-30T12:06:45;6.97;;;2.20;;
3417;SDS011;68007;51.312;12.372;2023-09-30T12:09:13;8.33;;;2.53;;
3417;SDS011;68007;51.312;12.372;2023-09-30T12:11:48;8.83;;;2.50;;
3417;SDS011;68007;51.312;12.372;2023-09-30T12:14:14;9.23;;;2.70;;
3417;SDS011;68007;51.312;12.372;2023-09-30T12:16:43;9.83;;;3.10;;
3417;SDS011;68007;51.312;12.372;2023-09-30T12:19:11;7.87;;;3.13;;
3417;SDS011;68007;51.312;12.372;2023-09-30T12:21:41;5.37;;;2.27;;
3417;SDS011;68007;51.312;12.372;2023-09-30T12:24:09;7.97;;;2.27;;
3417;SDS011;68007;51.312;12.372;2023-09-30T12:26:39;13.30;;;3.10;;
3417;SDS011;68007;51.312;12.372;2023-09-30T12:29:07;10.43;;;2.83;;
3417;SDS011;68007;51.312;12.372;2023-09-30T12:31:35;12.77;;;3.10;;
3417;SDS011;68007;51.312;12.372;2023-09-30T12:34:04;5.80;;;2.43;;
3417;SDS011;68007;51.312;12.372;2023-09-30T12:36:32;5.00;;;2.40;;
3417;SDS011;68007;51.312;12.372;2023-09-30T12:38:59;11.00;;;2.90;;
3417;SDS011;68007;51.312;12.372;2023-09-30T12:41:27;18.20;;;5.90;;
3417;SDS011;68007;51.312;12.372;2023-09-30T12:43:58;15.87;;;5.93;;
3417;SDS011;68007;51.312;12.372;2023-09-30T12:46:25;11.30;;;3.47;;
3417;SDS011;68007;51.312;12.372;2023-09-30T12:48:53;10.33;;;2.83;;
3417;SDS011;68007;51.312;12.372;2023-09-30T12:51:22;6.27;;;2.57;;
3417;SDS011;68007;51.312;12.372;2023-09-30T12:53:50;7.20;;;2.53;;
3417;SDS011;68007;51.312;12.372;2023-09-30T12:56:18;9.30;;;2.77;;
3417;SDS011;68007;51.312;12.372;2023-09-30T12:58:45;5.07;;;2.07;;
3417;SDS011;68007;51.312;12.372;2023-09-30T13:01:13;6.30;;;2.40;;
3417;SDS011;68007;51.312;12.372;2023-09-30T13:03:41;8.53;;;2.90;;
3417;SDS011;68007;51.312;12.372;2023-09-30T13:06:09;6.23;;;2.80;;
3417;SDS011;68007;51.312;12.372;2023-09-30T13:08:38;12.10;;;3.33;;
3417;SDS011;68007;51.312;12.372;2023-09-30T13:11:05;5.60;;;2.33;;
3417;SDS011;68007;51.312;12.372;2023-09-30T13:13:34;4.83;;;2.20;;
3417;SDS011;68007;51.312;12.372;2023-09-30T13:16:01;8.43;;;2.60;;
3417;SDS011;68007;51.312;12.372;2023-09-30T13:18:31;7.30;;;2.53;;
3417;SDS011;68007;51.312;12.372;2023-09-30T13:21:00;10.70;;;3.30;;
3417;SDS011;68007;51.312;12.372;2023-09-30T13:23:28;8.57;;;2.83;;
3417;SDS011;68007;51.312;12.372;2023-09-30T13:25:57;7.90;;;2.10;;
3417;SDS011;68007;51.312;12.372;2023-09-30T13:28:25;7.50;;;2.43;;
3417;SDS011;68007;51.312;12.372;2023-09-30T13:30:53;9.70;;;2.83;;
3417;SDS011;68007;51.312;12.372;2023-09-30T13:33:21;6.00;;;2.20;;
3417;SDS011;68007;51.312;12.372;2023-09-30T13:35:48;6.90;;;3.00;;
3417;SDS011;68007;51.312;12.372;2023-09-30T13:38:16;6.77;;;2.70;;
3417;SDS011;68007;51.312;12.372;2023-09-30T13:40:43;16.57;;;3.00;;
3417;SDS011;68007;51.312;12.372;2023-09-30T13:43:13;8.73;;;2.67;;
3417;SDS011;68007;51.312;12.372;2023-09-30T13:45:40;4.27;;;2.10;;
3417;SDS011;68007;51.312;12.372;2023-09-30T13:48:08;11.53;;;2.87;;
3417;SDS011;68007;51.312;12.372;2023-09-30T13:50:35;7.43;;;2.70;;
3417;SDS011;68007;51.312;12.372;2023-09-30T13:53:03;8.57;;;2.70;;
3417;SDS011;68007;51.312;12.372;2023-09-30T13:55:31;6.20;;;2.20;;
3417;SDS011;68007;51.312;12.372;2023-09-30T13:57:58;6.37;;;2.63;;
3417;SDS011;68007;51.312;12.372;2023-09-30T14:00:27;8.93;;;2.37;;
3417;SDS011;68007;51.312;12.372;2023-09-30T14:02:54;11.40;;;2.83;;
3417;SDS011;68007;51.312;12.372;2023-09-30T14:05:22;11.00;;;2.57;;
3417;SDS011;68007;51.312;12.372;2023-09-30T14:07:49;4.53;;;2.73;;
3417;SDS011;68007;51.312;12.372;2023-09-30T14:10:17;7.20;;;4.13;;
3417;SDS011;68007;51.312;12.372;2023-09-30T14:12:45;7.67;;;2.10;;
3417;SDS011;68007;51.312;12.372;2023-09-30T14:15:13;7.13;;;2.90;;
3417;SDS011;68007;51.312;12.372;2023-09-30T14:17:42;13.93;;;3.20;;
3417;SDS011;68007;51.312;12.372;2023-09-30T14:20:11;11.20;;;3.27;;
3417;SDS011;68007;51.312;12.372;2023-09-30T14:22:38;9.67;;;3.00;;
3417;SDS011;68007;51.312;12.372;2023-09-30T14:25:06;11.40;;;3.00;;
3417;SDS011;68007;51.312;12.372;2023-09-30T14:27:35;7.93;;;3.10;;
3417;SDS011;68007;51.312;12.372;2023-09-30T14:30:02;6.60;;;2.83;;
3417;SDS011;68007;51.312;12.372;2023-09-30T14:32:31;12.80;;;2.57;;
3417;SDS011;68007;51.312;12.372;2023-09-30T14:35:00;10.73;;;3.30;;
3417;SDS011;68007;51.312;12.372;2023-09-30T14:37:27;7.00;;;2.93;;
3417;SDS011;68007;51.312;12.372;2023-09-30T14:39:55;10.27;;;4.30;;
3417;SDS011;68007;51.312;12.372;2023-09-30T14:42:23;24.20;;;16.23;;
3417;SDS011;68007;51.312;12.372;2023-09-30T14:44:50;16.47;;;8.43;;
3417;SDS011;68007;51.312;12.372;2023-09-30T14:47:18;13.57;;;7.67;;
3417;SDS011;68007;51.312;12.372;2023-09-30T14:49:45;16.83;;;8.50;;
3417;SDS011;68007;51.312;12.372;2023-09-30T14:52:14;17.33;;;4.30;;
3417;SDS011;68007;51.312;12.372;2023-09-30T14:54:42;10.03;;;3.43;;
3417;SDS011;68007;51.312;12.372;2023-09-30T14:57:10;13.10;;;3.30;;
3417;SDS011;68007;51.312;12.372;2023-09-30T14:59:39;6.30;;;2.90;;
3417;SDS011;68007;51.312;12.372;2023-09-30T15:02:07;6.70;;;2.90;;
3417;SDS011;68007;51.312;12.372;2023-09-30T15:04:35;11.07;;;5.60;;
3417;SDS011;68007;51.312;12.372;2023-09-30T15:07:02;10.83;;;3.40;;